sensor_id;sensor_type;location;lat;lon;timestamp;pressure;altitude;pressure_sealevel;temperature;humidity
79705;BME280;69940;53.120;8.764;2024-03-22T00:00:05;102051.00;;;11.37;76.26
79705;BME280;69940;53.120;8.764;2024-03-22T00:02:33;102047.00;;;11.38;76.28
79705;BME280;69940;53.120;8.764;2024-03-22T00:05:04;102041.00;;;11.39;76.27
79705;BME280;69940;53.120;8.764;2024-03-22T00:07:33;102037.00;;;11.40;76.22
79705;BME280;69940;53.120;8.764;2024-03-22T00:10:06;102036.00;;;11.40;76.25
79705;BME280;69940;53.120;8.764;2024-03-22T00:12:33;102033.00;;;11.41;76.28
79705;BME280;69940;53.120;8.764;2024-03-22T00:15:05;102032.00;;;11.42;76.25
79705;BME280;69940;53.120;8.764;2024-03-22T00:17:34;102031.00;;;11.42;76.33
79705;BME280;69940;53.120;8.764;2024-03-22T00:20:06;102031.00;;;11.42;76.40
79705;BME280;69940;53.120;8.764;2024-03-22T00:22:33;102029.00;;;11.43;76.36
79705;BME280;69940;53.120;8.764;2024-03-22T00:25:05;102026.00;;;11.44;76.29
79705;BME280;69940;53.120;8.764;2024-03-22T00:27:33;102024.00;;;11.45;76.25
79705;BME280;69940;53.120;8.764;2024-03-22T00:30:06;102022.00;;;11.45;76.30
79705;BME280;69940;53.120;8.764;2024-03-22T00:32:33;102021.00;;;11.45;76.43
79705;BME280;69940;53.120;8.764;2024-03-22T00:35:04;102019.00;;;11.45;76.39
79705;BME280;69940;53.120;8.764;2024-03-22T00:37:33;102017.00;;;11.45;76.27
79705;BME280;69940;53.120;8.764;2024-03-22T00:40:04;102015.00;;;11.45;76.38
79705;BME280;69940;53.120;8.764;2024-03-22T00:42:33;102012.00;;;11.46;76.38
79705;BME280;69940;53.120;8.764;2024-03-22T00:45:05;102006.00;;;11.46;76.30
79705;BME280;69940;53.120;8.764;2024-03-22T00:47:33;102001.00;;;11.47;76.37
79705;BME280;69940;53.120;8.764;2024-03-22T00:50:04;101995.00;;;11.47;76.39
79705;BME280;69940;53.120;8.764;2024-03-22T00:52:33;101990.00;;;11.47;76.32
79705;BME280;69940;53.120;8.764;2024-03-22T00:55:04;101988.00;;;11.47;76.39
79705;BME280;69940;53.120;8.764;2024-03-22T00:57:35;101988.00;;;11.48;76.30
79705;BME280;69940;53.120;8.764;2024-03-22T01:00:06;101987.00;;;11.49;76.21
79705;BME280;69940;53.120;8.764;2024-03-22T01:02:33;101986.00;;;11.50;76.23
79705;BME280;69940;53.120;8.764;2024-03-22T01:05:04;101985.00;;;11.51;76.19
79705;BME280;69940;53.120;8.764;2024-03-22T01:07:33;101984.00;;;11.53;76.24
79705;BME280;69940;53.120;8.764;2024-03-22T01:10:04;101981.00;;;11.54;76.16
79705;BME280;69940;53.120;8.764;2024-03-22T01:12:33;101978.00;;;11.55;76.14
79705;BME280;69940;53.120;8.764;2024-03-22T01:15:05;101975.00;;;11.56;76.15
79705;BME280;69940;53.120;8.764;2024-03-22T01:17:33;101970.00;;;11.57;76.15
79705;BME280;69940;53.120;8.764;2024-03-22T01:20:04;101965.00;;;11.57;76.15
79705;BME280;69940;53.120;8.764;2024-03-22T01:22:33;101957.00;;;11.58;76.30
79705;BME280;69940;53.120;8.764;2024-03-22T01:25:04;101951.00;;;11.57;76.33
79705;BME280;69940;53.120;8.764;2024-03-22T01:27:35;101945.00;;;11.57;76.49
79705;BME280;69940;53.120;8.764;2024-03-22T01:30:04;101938.00;;;11.56;76.44
79705;BME280;69940;53.120;8.764;2024-03-22T01:32:33;101932.00;;;11.57;76.47
79705;BME280;69940;53.120;8.764;2024-03-22T01:35:04;101926.00;;;11.57;76.40
79705;BME280;69940;53.120;8.764;2024-03-22T01:37:33;101919.00;;;11.58;76.39
79705;BME280;69940;53.120;8.764;2024-03-22T01:40:05;101912.00;;;11.58;76.40
79705;BME280;69940;53.120;8.764;2024-03-22T01:42:33;101905.00;;;11.59;76.39
79705;BME280;69940;53.120;8.764;2024-03-22T01:45:06;101898.00;;;11.60;76.40
79705;BME280;69940;53.120;8.764;2024-03-22T01:47:33;101891.00;;;11.61;76.39
79705;BME280;69940;53.120;8.764;2024-03-22T01:50:05;101886.00;;;11.61;76.45
79705;BME280;69940;53.120;8.764;2024-03-22T01:52:33;101882.00;;;11.61;76.65
79705;BME280;69940;53.120;8.764;2024-03-22T01:55:07;101879.00;;;11.61;76.63
79705;BME280;69940;53.120;8.764;2024-03-22T01:57:33;101876.00;;;11.60;76.69
79705;BME280;69940;53.120;8.764;2024-03-22T02:00:05;101875.00;;;11.59;76.79
79705;BME280;69940;53.120;8.764;2024-03-22T02:02:33;101874.00;;;11.59;76.76
79705;BME280;69940;53.120;8.764;2024-03-22T02:05:16;101872.00;;;11.59;76.84
79705;BME280;69940;53.120;8.764;2024-03-22T02:07:33;101869.00;;;11.58;76.83
79705;BME280;69940;53.120;8.764;2024-03-22T02:10:04;101867.00;;;11.58;76.87
79705;BME280;69940;53.120;8.764;2024-03-22T02:12:33;101864.00;;;11.58;76.87
79705;BME280;69940;53.120;8.764;2024-03-22T02:15:04;101860.00;;;11.58;76.81
79705;BME280;69940;53.120;8.764;2024-03-22T02:17:34;101856.00;;;11.59;76.88
79705;BME280;69940;53.120;8.764;2024-03-22T02:20:06;101853.00;;;11.60;76.87
79705;BME280;69940;53.120;8.764;2024-03-22T02:22:33;101848.00;;;11.61;76.84
79705;BME280;69940;53.120;8.764;2024-03-22T02:25:04;101844.00;;;11.62;76.87
79705;BME280;69940;53.120;8.764;2024-03-22T02:27:34;101838.00;;;11.62;76.90
79705;BME280;69940;53.120;8.764;2024-03-22T02:30:05;101833.00;;;11.63;76.94
79705;BME280;69940;53.120;8.764;2024-03-22T02:32:33;101825.00;;;11.63;76.95
79705;BME280;69940;53.120;8.764;2024-03-22T02:35:04;101820.00;;;11.64;77.11
79705;BME280;69940;53.120;8.764;2024-03-22T02:37:33;101818.00;;;11.64;77.13
79705;BME280;69940;53.120;8.764;2024-03-22T02:40:04;101814.00;;;11.64;77.16
79705;BME280;69940;53.120;8.764;2024-03-22T02:42:33;101810.00;;;11.65;77.27
79705;BME280;69940;53.120;8.764;2024-03-22T02:45:04;101808.00;;;11.65;77.34
79705;BME280;69940;53.120;8.764;2024-03-22T02:47:33;101806.00;;;11.65;77.43
79705;BME280;69940;53.120;8.764;2024-03-22T02:50:04;101804.00;;;11.66;77.45
79705;BME280;69940;53.120;8.764;2024-03-22T02:52:33;101804.00;;;11.66;77.53
79705;BME280;69940;53.120;8.764;2024-03-22T02:55:04;101801.00;;;11.67;77.53
79705;BME280;69940;53.120;8.764;2024-03-22T02:57:33;101797.00;;;11.68;77.59
79705;BME280;69940;53.120;8.764;2024-03-22T03:00:06;101792.00;;;11.69;77.75
79705;BME280;69940;53.120;8.764;2024-03-22T03:02:33;101786.00;;;11.69;77.87
79705;BME280;69940;53.120;8.764;2024-03-22T03:05:05;101780.00;;;11.68;78.03
79705;BME280;69940;53.120;8.764;2024-03-22T03:07:34;101775.00;;;11.68;78.09
79705;BME280;69940;53.120;8.764;2024-03-22T03:10:04;101771.00;;;11.69;78.16
79705;BME280;69940;53.120;8.764;2024-03-22T03:12:33;101767.00;;;11.70;78.07
79705;BME280;69940;53.120;8.764;2024-03-22T03:15:04;101763.00;;;11.71;78.04
79705;BME280;69940;53.120;8.764;2024-03-22T03:17:33;101758.00;;;11.72;78.13
79705;BME280;69940;53.120;8.764;2024-03-22T03:20:09;101753.00;;;11.73;78.17
79705;BME280;69940;53.120;8.764;2024-03-22T03:22:34;101748.00;;;11.73;78.28
79705;BME280;69940;53.120;8.764;2024-03-22T03:25:05;101743.00;;;11.73;78.27
79705;BME280;69940;53.120;8.764;2024-03-22T03:27:33;101737.00;;;11.73;78.49
79705;BME280;69940;53.120;8.764;2024-03-22T03:30:04;101735.00;;;11.74;78.50
79705;BME280;69940;53.120;8.764;2024-03-22T03:32:33;101734.00;;;11.73;78.57
79705;BME280;69940;53.120;8.764;2024-03-22T03:35:04;101731.00;;;11.73;78.67
79705;BME280;69940;53.120;8.764;2024-03-22T03:37:33;101729.00;;;11.74;78.67
79705;BME280;69940;53.120;8.764;2024-03-22T03:40:05;101726.00;;;11.74;78.70
79705;BME280;69940;53.120;8.764;2024-03-22T03:42:33;101723.00;;;11.75;78.78
79705;BME280;69940;53.120;8.764;2024-03-22T03:45:04;101720.00;;;11.76;78.85
79705;BME280;69940;53.120;8.764;2024-03-22T03:47:34;101717.00;;;11.77;78.85
79705;BME280;69940;53.120;8.764;2024-03-22T03:50:04;101713.00;;;11.77;78.95
79705;BME280;69940;53.120;8.764;2024-03-22T03:52:33;101709.00;;;11.78;78.99
79705;BME280;69940;53.120;8.764;2024-03-22T03:55:04;101704.00;;;11.78;79.14
79705;BME280;69940;53.120;8.764;2024-03-22T03:57:33;101699.00;;;11.78;79.21
79705;BME280;69940;53.120;8.764;2024-03-22T04:00:06;101694.00;;;11.78;79.23
79705;BME280;69940;53.120;8.764;2024-03-22T04:02:33;101688.00;;;11.79;79.24
79705;BME280;69940;53.120;8.764;2024-03-22T04:05:04;101685.00;;;11.79;79.38
79705;BME280;69940;53.120;8.764;2024-03-22T04:07:33;101682.00;;;11.79;79.39
79705;BME280;69940;53.120;8.764;2024-03-22T04:10:04;101680.00;;;11.80;79.40
79705;BME280;69940;53.120;8.764;2024-03-22T04:12:33;101678.00;;;11.82;79.39
79705;BME280;69940;53.120;8.764;2024-03-22T04:15:04;101676.00;;;11.83;79.40
79705;BME280;69940;53.120;8.764;2024-03-22T04:17:33;101675.00;;;11.84;79.47
79705;BME280;69940;53.120;8.764;2024-03-22T04:20:05;101673.00;;;11.84;79.56
79705;BME280;69940;53.120;8.764;2024-03-22T04:22:34;101670.00;;;11.85;79.62
79705;BME280;69940;53.120;8.764;2024-03-22T04:25:04;101668.00;;;11.86;79.62
79705;BME280;69940;53.120;8.764;2024-03-22T04:27:35;101665.00;;;11.87;79.66
79705;BME280;69940;53.120;8.764;2024-03-22T04:30:04;101662.00;;;11.88;79.62
79705;BME280;69940;53.120;8.764;2024-03-22T04:32:33;101659.00;;;11.90;79.57
79705;BME280;69940;53.120;8.764;2024-03-22T04:35:04;101655.00;;;11.90;79.65
79705;BME280;69940;53.120;8.764;2024-03-22T04:37:33;101652.00;;;11.91;79.71
79705;BME280;69940;53.120;8.764;2024-03-22T04:40:04;101650.00;;;11.92;79.82
79705;BME280;69940;53.120;8.764;2024-03-22T04:42:33;101647.00;;;11.93;79.79
79705;BME280;69940;53.120;8.764;2024-03-22T04:45:04;101645.00;;;11.94;79.76
79705;BME280;69940;53.120;8.764;2024-03-22T04:47:33;101644.00;;;11.94;79.91
79705;BME280;69940;53.120;8.764;2024-03-22T04:50:05;101643.00;;;11.95;79.96
79705;BME280;69940;53.120;8.764;2024-03-22T04:52:33;101641.00;;;11.95;79.92
79705;BME280;69940;53.120;8.764;2024-03-22T04:55:04;101640.00;;;11.96;79.92
79705;BME280;69940;53.120;8.764;2024-03-22T04:57:33;101638.00;;;11.97;79.97
79705;BME280;69940;53.120;8.764;2024-03-22T05:00:05;101638.00;;;11.98;80.02
79705;BME280;69940;53.120;8.764;2024-03-22T05:02:33;101637.00;;;11.99;80.03
79705;BME280;69940;53.120;8.764;2024-03-22T05:05:04;101635.00;;;12.00;80.10
79705;BME280;69940;53.120;8.764;2024-03-22T05:07:33;101633.00;;;12.00;80.12
79705;BME280;69940;53.120;8.764;2024-03-22T05:10:04;101630.00;;;12.01;80.20
79705;BME280;69940;53.120;8.764;2024-03-22T05:12:34;101628.00;;;12.01;80.27
79705;BME280;69940;53.120;8.764;2024-03-22T05:15:05;101625.00;;;12.01;80.28
79705;BME280;69940;53.120;8.764;2024-03-22T05:17:34;101623.00;;;12.02;80.35
79705;BME280;69940;53.120;8.764;2024-03-22T05:20:04;101622.00;;;12.02;80.35
79705;BME280;69940;53.120;8.764;2024-03-22T05:22:33;101619.00;;;12.03;80.33
79705;BME280;69940;53.120;8.764;2024-03-22T05:25:04;101619.00;;;12.03;80.36
79705;BME280;69940;53.120;8.764;2024-03-22T05:27:34;101617.00;;;12.03;80.40
79705;BME280;69940;53.120;8.764;2024-03-22T05:30:07;101615.00;;;12.04;80.41
79705;BME280;69940;53.120;8.764;2024-03-22T05:32:33;101612.00;;;12.04;80.49
79705;BME280;69940;53.120;8.764;2024-03-22T05:35:04;101612.00;;;12.05;80.54
79705;BME280;69940;53.120;8.764;2024-03-22T05:37:34;101611.00;;;12.05;80.62
79705;BME280;69940;53.120;8.764;2024-03-22T05:40:06;101610.00;;;12.04;80.67
79705;BME280;69940;53.120;8.764;2024-03-22T05:42:33;101609.00;;;12.04;80.74
79705;BME280;69940;53.120;8.764;2024-03-22T05:45:04;101610.00;;;12.05;80.70
79705;BME280;69940;53.120;8.764;2024-03-22T05:47:33;101609.00;;;12.05;80.78
79705;BME280;69940;53.120;8.764;2024-03-22T05:50:04;101608.00;;;12.06;80.74
79705;BME280;69940;53.120;8.764;2024-03-22T05:52:34;101606.00;;;12.08;80.77
79705;BME280;69940;53.120;8.764;2024-03-22T05:55:05;101601.00;;;12.09;80.79
79705;BME280;69940;53.120;8.764;2024-03-22T05:57:33;101598.00;;;12.10;80.74
79705;BME280;69940;53.120;8.764;2024-03-22T06:00:05;101594.00;;;12.11;80.77
79705;BME280;69940;53.120;8.764;2024-03-22T06:02:33;101590.00;;;12.11;80.85
79705;BME280;69940;53.120;8.764;2024-03-22T06:05:04;101587.00;;;12.12;80.90
79705;BME280;69940;53.120;8.764;2024-03-22T06:07:44;101584.00;;;12.13;80.89
79705;BME280;69940;53.120;8.764;2024-03-22T06:10:04;101582.00;;;12.15;80.79
79705;BME280;69940;53.120;8.764;2024-03-22T06:27:21;101541.00;;;13.82;80.40
79705;BME280;69940;53.120;8.764;2024-03-22T06:47:38;101545.00;;;13.87;80.74
79705;BME280;69940;53.120;8.764;2024-03-22T06:50:09;101547.00;;;13.55;80.68
79705;BME280;69940;53.120;8.764;2024-03-22T06:52:38;101546.00;;;13.30;80.79
79705;BME280;69940;53.120;8.764;2024-03-22T06:55:08;101549.00;;;13.11;80.81
79705;BME280;69940;53.120;8.764;2024-03-22T06:57:38;101551.00;;;12.96;80.92
79705;BME280;69940;53.120;8.764;2024-03-22T07:00:13;101553.00;;;12.84;81.06
79705;BME280;69940;53.120;8.764;2024-03-22T07:02:39;101554.00;;;12.74;81.26
79705;BME280;69940;53.120;8.764;2024-03-22T07:05:08;101554.00;;;12.67;81.40
79705;BME280;69940;53.120;8.764;2024-03-22T07:07:38;101552.00;;;12.61;81.59
79705;BME280;69940;53.120;8.764;2024-03-22T07:10:09;101549.00;;;12.56;81.68
79705;BME280;69940;53.120;8.764;2024-03-22T07:12:38;101544.00;;;12.52;81.71
79705;BME280;69940;53.120;8.764;2024-03-22T07:15:09;101538.00;;;12.49;81.90
79705;BME280;69940;53.120;8.764;2024-03-22T07:17:38;101534.00;;;12.45;82.06
79705;BME280;69940;53.120;8.764;2024-03-22T07:20:09;101534.00;;;12.43;82.41
79705;BME280;69940;53.120;8.764;2024-03-22T07:22:38;101531.00;;;12.41;82.81
79705;BME280;69940;53.120;8.764;2024-03-22T07:25:11;101530.00;;;12.40;83.11
79705;BME280;69940;53.120;8.764;2024-03-22T07:27:38;101530.00;;;12.39;83.26
79705;BME280;69940;53.120;8.764;2024-03-22T07:30:09;101528.00;;;12.39;83.35
79705;BME280;69940;53.120;8.764;2024-03-22T07:32:38;101527.00;;;12.39;83.40
79705;BME280;69940;53.120;8.764;2024-03-22T07:35:09;101526.00;;;12.39;83.57
79705;BME280;69940;53.120;8.764;2024-03-22T07:37:38;101523.00;;;12.40;83.63
79705;BME280;69940;53.120;8.764;2024-03-22T07:40:09;101522.00;;;12.40;83.60
79705;BME280;69940;53.120;8.764;2024-03-22T07:42:38;101520.00;;;12.39;83.68
79705;BME280;69940;53.120;8.764;2024-03-22T07:45:09;101519.00;;;12.38;83.87
79705;BME280;69940;53.120;8.764;2024-03-22T07:47:40;101520.00;;;12.36;84.20
79705;BME280;69940;53.120;8.764;2024-03-22T07:50:09;101519.00;;;12.34;84.20
79705;BME280;69940;53.120;8.764;2024-03-22T07:52:38;101521.00;;;12.33;84.23
79705;BME280;69940;53.120;8.764;2024-03-22T07:55:08;101522.00;;;12.32;84.31
79705;BME280;69940;53.120;8.764;2024-03-22T07:57:38;101521.00;;;12.31;84.32
79705;BME280;69940;53.120;8.764;2024-03-22T08:00:10;101520.00;;;12.31;84.40
79705;BME280;69940;53.120;8.764;2024-03-22T08:02:38;101518.00;;;12.31;84.45
79705;BME280;69940;53.120;8.764;2024-03-22T08:05:09;101516.00;;;12.30;84.53
79705;BME280;69940;53.120;8.764;2024-03-22T08:07:38;101514.00;;;12.30;84.71
79705;BME280;69940;53.120;8.764;2024-03-22T08:10:09;101515.00;;;12.29;84.84
79705;BME280;69940;53.120;8.764;2024-03-22T08:12:38;101513.00;;;12.28;84.82
79705;BME280;69940;53.120;8.764;2024-03-22T08:15:09;101512.00;;;12.27;84.83
79705;BME280;69940;53.120;8.764;2024-03-22T08:17:38;101510.00;;;12.27;84.85
79705;BME280;69940;53.120;8.764;2024-03-22T08:20:09;101508.00;;;12.27;84.92
79705;BME280;69940;53.120;8.764;2024-03-22T08:22:38;101506.00;;;12.28;84.88
79705;BME280;69940;53.120;8.764;2024-03-22T08:25:08;101503.00;;;12.29;84.79
79705;BME280;69940;53.120;8.764;2024-03-22T08:27:38;101500.00;;;12.32;84.67
79705;BME280;69940;53.120;8.764;2024-03-22T08:30:11;101497.00;;;12.33;84.55
79705;BME280;69940;53.120;8.764;2024-03-22T08:32:38;101495.00;;;12.34;84.50
79705;BME280;69940;53.120;8.764;2024-03-22T08:35:08;101493.00;;;12.35;84.43
79705;BME280;69940;53.120;8.764;2024-03-22T08:37:38;101493.00;;;12.36;84.19
79705;BME280;69940;53.120;8.764;2024-03-22T08:40:09;101492.00;;;12.36;84.23
79705;BME280;69940;53.120;8.764;2024-03-22T08:42:38;101491.00;;;12.36;84.10
79705;BME280;69940;53.120;8.764;2024-03-22T08:45:09;101491.00;;;12.37;83.97
79705;BME280;69940;53.120;8.764;2024-03-22T08:47:40;101491.00;;;12.37;83.85
79705;BME280;69940;53.120;8.764;2024-03-22T08:50:09;101490.00;;;12.37;83.79
79705;BME280;69940;53.120;8.764;2024-03-22T08:52:39;101487.00;;;12.38;83.65
79705;BME280;69940;53.120;8.764;2024-03-22T08:55:16;101485.00;;;12.40;83.63
79705;BME280;69940;53.120;8.764;2024-03-22T08:57:39;101483.00;;;12.41;83.55
79705;BME280;69940;53.120;8.764;2024-03-22T09:00:10;101480.00;;;12.42;83.54
79705;BME280;69940;53.120;8.764;2024-03-22T09:02:39;101476.00;;;12.44;83.36
79705;BME280;69940;53.120;8.764;2024-03-22T09:05:09;101473.00;;;12.46;83.27
79705;BME280;69940;53.120;8.764;2024-03-22T09:07:38;101470.00;;;12.49;83.06
79705;BME280;69940;53.120;8.764;2024-03-22T09:10:09;101468.00;;;12.51;83.04
79705;BME280;69940;53.120;8.764;2024-03-22T09:12:38;101467.00;;;12.53;82.98
79705;BME280;69940;53.120;8.764;2024-03-22T09:15:09;101467.00;;;12.53;82.89
79705;BME280;69940;53.120;8.764;2024-03-22T09:17:39;101465.00;;;12.53;82.86
79705;BME280;69940;53.120;8.764;2024-03-22T09:20:09;101464.00;;;12.53;82.75
79705;BME280;69940;53.120;8.764;2024-03-22T09:22:39;101464.00;;;12.52;82.73
79705;BME280;69940;53.120;8.764;2024-03-22T09:25:08;101462.00;;;12.50;82.63
79705;BME280;69940;53.120;8.764;2024-03-22T09:27:38;101459.00;;;12.49;82.74
79705;BME280;69940;53.120;8.764;2024-03-22T09:30:11;101458.00;;;12.48;82.85
79705;BME280;69940;53.120;8.764;2024-03-22T09:32:39;101457.00;;;12.46;82.80
79705;BME280;69940;53.120;8.764;2024-03-22T09:35:09;101455.00;;;12.44;82.71
79705;BME280;69940;53.120;8.764;2024-03-22T09:37:38;101454.00;;;12.42;82.69
79705;BME280;69940;53.120;8.764;2024-03-22T09:40:09;101453.00;;;12.41;82.78
79705;BME280;69940;53.120;8.764;2024-03-22T09:42:41;101451.00;;;12.40;82.77
79705;BME280;69940;53.120;8.764;2024-03-22T09:45:09;101449.00;;;12.38;82.96
79705;BME280;69940;53.120;8.764;2024-03-22T09:47:39;101449.00;;;12.36;82.97
79705;BME280;69940;53.120;8.764;2024-03-22T09:50:09;101449.00;;;12.35;82.78
79705;BME280;69940;53.120;8.764;2024-03-22T09:52:38;101449.00;;;12.34;82.76
79705;BME280;69940;53.120;8.764;2024-03-22T09:55:09;101449.00;;;12.34;82.80
79705;BME280;69940;53.120;8.764;2024-03-22T09:57:39;101449.00;;;12.35;83.00
79705;BME280;69940;53.120;8.764;2024-03-22T10:00:10;101450.00;;;12.37;82.97
79705;BME280;69940;53.120;8.764;2024-03-22T10:02:38;101452.00;;;12.39;82.98
79705;BME280;69940;53.120;8.764;2024-03-22T10:05:09;101453.00;;;12.41;83.07
79705;BME280;69940;53.120;8.764;2024-03-22T10:07:39;101453.00;;;12.43;82.90
79705;BME280;69940;53.120;8.764;2024-03-22T10:10:09;101454.00;;;12.46;82.94
79705;BME280;69940;53.120;8.764;2024-03-22T10:12:40;101455.00;;;12.49;82.92
79705;BME280;69940;53.120;8.764;2024-03-22T10:15:13;101455.00;;;12.52;82.75
79705;BME280;69940;53.120;8.764;2024-03-22T10:17:39;101457.00;;;12.54;82.73
79705;BME280;69940;53.120;8.764;2024-03-22T10:20:14;101457.00;;;12.57;82.61
79705;BME280;69940;53.120;8.764;2024-03-22T10:22:41;101455.00;;;12.61;82.39
79705;BME280;69940;53.120;8.764;2024-03-22T10:25:09;101457.00;;;12.64;82.35
79705;BME280;69940;53.120;8.764;2024-03-22T10:27:39;101457.00;;;12.67;82.24
79705;BME280;69940;53.120;8.764;2024-03-22T10:30:09;101455.00;;;12.70;82.02
79705;BME280;69940;53.120;8.764;2024-03-22T10:32:38;101454.00;;;12.75;82.06
79705;BME280;69940;53.120;8.764;2024-03-22T10:35:12;101451.00;;;12.80;82.16
79705;BME280;69940;53.120;8.764;2024-03-22T10:37:39;101450.00;;;12.83;82.24
79705;BME280;69940;53.120;8.764;2024-03-22T10:40:09;101450.00;;;12.82;82.51
79705;BME280;69940;53.120;8.764;2024-03-22T10:42:39;101450.00;;;12.80;82.65
79705;BME280;69940;53.120;8.764;2024-03-22T10:45:09;101450.00;;;12.76;82.70
79705;BME280;69940;53.120;8.764;2024-03-22T10:47:38;101452.00;;;12.71;82.93
79705;BME280;69940;53.120;8.764;2024-03-22T10:50:11;101449.00;;;12.66;83.04
79705;BME280;69940;53.120;8.764;2024-03-22T10:52:47;101450.00;;;12.63;83.14
79705;BME280;69940;53.120;8.764;2024-03-22T10:55:19;101449.00;;;12.61;83.09
79705;BME280;69940;53.120;8.764;2024-03-22T10:57:38;101447.00;;;12.60;83.42
79705;BME280;69940;53.120;8.764;2024-03-22T11:00:11;101447.00;;;12.60;83.36
79705;BME280;69940;53.120;8.764;2024-03-22T11:02:38;101448.00;;;12.60;83.50
79705;BME280;69940;53.120;8.764;2024-03-22T11:05:16;101447.00;;;12.60;83.58
79705;BME280;69940;53.120;8.764;2024-03-22T11:07:38;101446.00;;;12.61;83.61
79705;BME280;69940;53.120;8.764;2024-03-22T11:10:08;101445.00;;;12.63;83.68
79705;BME280;69940;53.120;8.764;2024-03-22T11:12:41;101442.00;;;12.64;83.32
79705;BME280;69940;53.120;8.764;2024-03-22T11:15:11;101438.00;;;12.65;83.38
79705;BME280;69940;53.120;8.764;2024-03-22T11:17:38;101434.00;;;12.66;83.60
79705;BME280;69940;53.120;8.764;2024-03-22T11:20:09;101431.00;;;12.67;83.58
79705;BME280;69940;53.120;8.764;2024-03-22T11:22:38;101430.00;;;12.68;83.57
79705;BME280;69940;53.120;8.764;2024-03-22T11:25:09;101428.00;;;12.69;83.56
79705;BME280;69940;53.120;8.764;2024-03-22T11:27:38;101427.00;;;12.70;83.54
79705;BME280;69940;53.120;8.764;2024-03-22T11:30:09;101424.00;;;12.72;83.53
79705;BME280;69940;53.120;8.764;2024-03-22T11:32:45;101421.00;;;12.73;83.48
79705;BME280;69940;53.120;8.764;2024-03-22T11:35:10;101417.00;;;12.73;83.37
79705;BME280;69940;53.120;8.764;2024-03-22T11:37:39;101413.00;;;12.73;83.33
79705;BME280;69940;53.120;8.764;2024-03-22T11:40:11;101410.00;;;12.72;83.41
79705;BME280;69940;53.120;8.764;2024-03-22T11:42:40;101409.00;;;12.71;83.37
79705;BME280;69940;53.120;8.764;2024-03-22T11:45:10;101406.00;;;12.70;83.44
79705;BME280;69940;53.120;8.764;2024-03-22T11:47:38;101404.00;;;12.69;83.57
79705;BME280;69940;53.120;8.764;2024-03-22T11:50:10;101402.00;;;12.68;83.52
79705;BME280;69940;53.120;8.764;2024-03-22T11:52:40;101401.00;;;12.68;83.46
79705;BME280;69940;53.120;8.764;2024-03-22T11:55:10;101399.00;;;12.68;83.55
79705;BME280;69940;53.120;8.764;2024-03-22T11:57:38;101399.00;;;12.68;83.67
79705;BME280;69940;53.120;8.764;2024-03-22T12:00:14;101397.00;;;12.66;83.66
79705;BME280;69940;53.120;8.764;2024-03-22T12:02:38;101397.00;;;12.64;83.73
79705;BME280;69940;53.120;8.764;2024-03-22T12:05:09;101396.00;;;12.62;83.93
79705;BME280;69940;53.120;8.764;2024-03-22T12:07:39;101396.00;;;12.62;83.91
79705;BME280;69940;53.120;8.764;2024-03-22T12:10:08;101395.00;;;12.62;83.81
79705;BME280;69940;53.120;8.764;2024-03-22T12:12:39;101394.00;;;12.62;83.83
79705;BME280;69940;53.120;8.764;2024-03-22T12:15:08;101393.00;;;12.64;83.91
79705;BME280;69940;53.120;8.764;2024-03-22T12:17:41;101391.00;;;12.65;83.74
79705;BME280;69940;53.120;8.764;2024-03-22T12:20:09;101391.00;;;12.66;83.74
79705;BME280;69940;53.120;8.764;2024-03-22T12:22:38;101389.00;;;12.67;83.71
79705;BME280;69940;53.120;8.764;2024-03-22T12:25:11;101387.00;;;12.68;83.64
79705;BME280;69940;53.120;8.764;2024-03-22T12:27:38;101386.00;;;12.69;83.45
79705;BME280;69940;53.120;8.764;2024-03-22T12:30:09;101383.00;;;12.68;83.36
79705;BME280;69940;53.120;8.764;2024-03-22T12:32:38;101381.00;;;12.67;83.46
79705;BME280;69940;53.120;8.764;2024-03-22T12:35:09;101380.00;;;12.66;83.40
79705;BME280;69940;53.120;8.764;2024-03-22T12:37:38;101379.00;;;12.65;83.37
79705;BME280;69940;53.120;8.764;2024-03-22T12:40:11;101378.00;;;12.64;83.35
79705;BME280;69940;53.120;8.764;2024-03-22T12:42:38;101377.00;;;12.64;83.32
79705;BME280;69940;53.120;8.764;2024-03-22T12:45:09;101375.00;;;12.63;83.23
79705;BME280;69940;53.120;8.764;2024-03-22T12:47:39;101373.00;;;12.63;83.16
79705;BME280;69940;53.120;8.764;2024-03-22T12:50:09;101371.00;;;12.62;83.11
79705;BME280;69940;53.120;8.764;2024-03-22T12:52:38;101369.00;;;12.63;83.02
79705;BME280;69940;53.120;8.764;2024-03-22T12:55:08;101367.00;;;12.64;82.95
79705;BME280;69940;53.120;8.764;2024-03-22T12:57:39;101365.00;;;12.66;82.99
79705;BME280;69940;53.120;8.764;2024-03-22T13:00:14;101365.00;;;12.67;82.81
79705;BME280;69940;53.120;8.764;2024-03-22T13:02:41;101365.00;;;12.68;82.85
79705;BME280;69940;53.120;8.764;2024-03-22T13:05:08;101363.00;;;12.68;82.95
79705;BME280;69940;53.120;8.764;2024-03-22T13:07:38;101362.00;;;12.69;83.02
79705;BME280;69940;53.120;8.764;2024-03-22T13:10:09;101360.00;;;12.70;83.14
79705;BME280;69940;53.120;8.764;2024-03-22T13:12:38;101358.00;;;12.72;83.20
79705;BME280;69940;53.120;8.764;2024-03-22T13:15:08;101355.00;;;12.75;83.06
79705;BME280;69940;53.120;8.764;2024-03-22T13:17:38;101355.00;;;12.79;82.91
79705;BME280;69940;53.120;8.764;2024-03-22T13:20:13;101354.00;;;12.82;82.81
79705;BME280;69940;53.120;8.764;2024-03-22T13:22:38;101351.00;;;12.82;82.85
79705;BME280;69940;53.120;8.764;2024-03-22T13:25:16;101350.00;;;12.82;82.91
79705;BME280;69940;53.120;8.764;2024-03-22T13:27:41;101347.00;;;12.81;82.95
79705;BME280;69940;53.120;8.764;2024-03-22T13:30:13;101346.00;;;12.79;83.16
79705;BME280;69940;53.120;8.764;2024-03-22T13:32:38;101343.00;;;12.77;83.40
79705;BME280;69940;53.120;8.764;2024-03-22T13:35:09;101342.00;;;12.75;83.59